Time;durP1;ratioP1;P1;durP2;ratioP2;P2;SDS_P1;SDS_P2;PMS_P1;PMS_P2;Temp;Humidity;BMP_temperature;BMP_pressure;BME280_temperature;BME280_humidity;BME280_pressure;Samples;Min_cycle;Max_cycle;Signal;HPM_P1;HPM_P2
2022/10/09 00:01:21;;;;;;;2.45;1.98;;;18.70;53.40;;;;;;5089096;28;45236;-74
2022/10/09 00:03:49;;;;;;;1.80;1.67;;;18.70;53.30;;;;;;5089109;28;45268;-74
2022/10/09 00:06:17;;;;;;;2.00;1.80;;;18.70;53.40;;;;;;5089500;28;45308;-75
2022/10/09 00:08:44;;;;;;;2.75;1.90;;;18.70;53.40;;;;;;5088939;28;45434;-74
2022/10/09 00:11:13;;;;;;;1.90;1.70;;;18.70;53.40;;;;;;5089305;28;45558;-74
2022/10/09 00:13:40;;;;;;;2.20;2.00;;;18.70;53.40;;;;;;5089331;28;45329;-74
2022/10/09 00:16:08;;;;;;;2.53;1.70;;;18.70;53.40;;;;;;5089230;28;45205;-74
2022/10/09 00:18:35;;;;;;;2.78;1.83;;;18.70;54.00;;;;;;5088668;28;45466;-73
2022/10/09 00:21:02;;;;;;;1.83;1.73;;;18.70;53.50;;;;;;5088836;28;45384;-74
2022/10/09 00:23:29;;;;;;;1.67;1.58;;;18.70;53.40;;;;;;5088946;28;45217;-74
2022/10/09 00:25:56;;;;;;;1.77;1.60;;;18.60;53.40;;;;;;5089099;28;45450;-74
2022/10/09 00:28:25;;;;;;;2.22;1.70;;;18.60;53.40;;;;;;5088618;28;45504;-74
2022/10/09 00:30:52;;;;;;;3.47;1.90;;;18.60;53.90;;;;;;5089151;28;45367;-75
2022/10/09 00:33:19;;;;;;;2.08;1.65;;;18.60;53.40;;;;;;5088659;28;45255;-73
2022/10/09 00:35:46;;;;;;;2.35;1.77;;;18.60;53.40;;;;;;5088054;28;45300;-74
2022/10/09 00:38:12;;;;;;;1.70;1.60;;;18.60;53.40;;;;;;5088461;28;46588;-74
2022/10/09 00:40:39;;;;;;;1.83;1.58;;;18.50;53.40;;;;;;5088680;28;45237;-74
2022/10/09 00:43:10;;;;;;;1.70;1.60;;;18.50;53.30;;;;;;5088370;28;45400;-73
2022/10/09 00:45:38;;;;;;;3.65;1.77;;;18.50;53.50;;;;;;5088672;28;45194;-74
2022/10/09 00:48:06;;;;;;;1.63;1.50;;;18.50;53.40;;;;;;5088363;28;45213;-74
2022/10/09 00:50:38;;;;;;;2.20;1.70;;;18.50;53.40;;;;;;5088409;28;45353;-74
2022/10/09 00:53:05;;;;;;;1.77;1.67;;;18.50;53.40;;;;;;5088413;28;45220;-74
2022/10/09 00:55:31;;;;;;;1.73;1.63;;;18.50;53.40;;;;;;5088667;28;45466;-74
2022/10/09 00:57:59;;;;;;;1.85;1.50;;;18.50;53.40;;;;;;5088139;28;46431;-74
2022/10/09 01:00:26;;;;;;;1.77;1.58;;;18.50;53.50;;;;;;5088469;28;45318;-74
2022/10/09 01:02:54;;;;;;;2.08;1.88;;;18.50;53.40;;;;;;5088329;28;45182;-75
2022/10/09 01:05:21;;;;;;;2.10;1.58;;;18.50;53.40;;;;;;5088385;28;45428;-74
2022/10/09 01:07:49;;;;;;;2.90;1.80;;;18.50;53.50;;;;;;5087963;28;46314;-74
2022/10/09 01:10:24;;;;;;;1.80;1.67;;;18.50;54.10;;;;;;5088027;28;45251;-74
2022/10/09 01:12:54;;;;;;;2.55;1.60;;;18.50;53.50;;;;;;5088130;28;45280;-74
2022/10/09 01:15:23;;;;;;;2.03;1.58;;;18.50;53.50;;;;;;5088335;28;45184;-74
2022/10/09 01:17:55;;;;;;;1.45;1.35;;;18.50;53.60;;;;;;5087477;28;46403;-74
2022/10/09 01:20:34;;;;;;;1.70;1.40;;;18.40;53.50;;;;;;5087889;28;45304;-75
2022/10/09 01:23:12;;;;;;;1.60;1.50;;;18.40;53.50;;;;;;5087949;28;45205;-74
2022/10/09 01:25:44;;;;;;;1.23;1.13;;;18.40;53.60;;;;;;5087901;28;45570;-74
2022/10/09 01:28:13;;;;;;;2.00;1.38;;;18.40;53.60;;;;;;5087805;28;45326;-74
2022/10/09 01:30:39;;;;;;;1.50;1.40;;;18.40;53.60;;;;;;5087163;27;45247;-74
2022/10/09 01:33:06;;;;;;;1.70;1.40;;;18.40;53.60;;;;;;5088060;28;45439;-74
2022/10/09 01:35:33;;;;;;;2.17;1.23;;;18.40;53.60;;;;;;5087055;28;45454;-74
2022/10/09 01:38:00;;;;;;;2.08;1.52;;;18.40;53.60;;;;;;5087465;28;45445;-74
2022/10/09 01:40:27;;;;;;;1.83;1.52;;;18.40;53.60;;;;;;5087459;28;45280;-74
2022/10/09 01:42:53;;;;;;;1.55;1.45;;;18.40;53.60;;;;;;5087468;28;45293;-74
2022/10/09 01:45:22;;;;;;;1.42;1.30;;;18.40;53.60;;;;;;5087764;28;45393;-74
2022/10/09 01:47:48;;;;;;;1.73;1.48;;;18.40;53.60;;;;;;5087372;28;46403;-74
2022/10/09 01:50:18;;;;;;;1.40;1.30;;;18.40;53.60;;;;;;5087511;28;45337;-74
2022/10/09 01:52:47;;;;;;;1.42;1.33;;;18.40;53.60;;;;;;5087390;28;45177;-74
2022/10/09 01:55:24;;;;;;;1.15;1.05;;;18.30;53.60;;;;;;5087551;28;45428;-74
2022/10/09 01:57:52;;;;;;;1.92;1.30;;;18.30;53.60;;;;;;5087171;28;45387;-74
2022/10/09 02:00:19;;;;;;;1.38;1.27;;;18.30;53.70;;;;;;5087335;28;45294;-74
2022/10/09 02:02:47;;;;;;;1.42;1.33;;;18.30;53.60;;;;;;5087267;28;45206;-74
2022/10/09 02:05:17;;;;;;;1.20;1.10;;;18.30;53.60;;;;;;5087442;28;45371;-74
2022/10/09 02:07:44;;;;;;;1.30;1.20;;;18.30;53.60;;;;;;5087046;28;45209;-74
2022/10/09 02:10:11;;;;;;;1.50;1.30;;;18.30;53.60;;;;;;5087145;28;45305;-74
2022/10/09 02:12:39;;;;;;;2.00;1.30;;;18.30;53.60;;;;;;5087230;28;45312;-74
2022/10/09 02:15:07;;;;;;;1.60;1.50;;;18.30;53.60;;;;;;5087432;28;45240;-74
2022/10/09 02:17:34;;;;;;;1.10;1.10;;;18.30;53.70;;;;;;5087210;28;47601;-74
2022/10/09 02:20:05;;;;;;;1.25;1.15;;;18.30;53.70;;;;;;5087041;28;45264;-74
2022/10/09 02:22:34;;;;;;;1.33;1.23;;;18.20;53.70;;;;;;5087182;28;45196;-74
2022/10/09 02:25:02;;;;;;;1.80;1.25;;;18.20;53.60;;;;;;5087135;28;45206;-74
2022/10/09 02:27:29;;;;;;;1.40;1.10;;;18.20;53.70;;;;;;5085962;28;46690;-74
2022/10/09 02:29:56;;;;;;;1.52;1.10;;;18.20;54.30;;;;;;5086697;28;45323;-74
2022/10/09 02:32:23;;;;;;;1.50;1.40;;;18.20;53.70;;;;;;5086982;28;45197;-74
2022/10/09 02:34:49;;;;;;;1.33;1.23;;;18.20;53.70;;;;;;5087191;28;45257;-74
2022/10/09 02:37:18;;;;;;;1.10;1.10;;;18.20;54.30;;;;;;5086603;28;45201;-74
2022/10/09 02:39:44;;;;;;;1.05;1.00;;;18.20;54.30;;;;;;5086689;28;45312;-74
2022/10/09 02:42:11;;;;;;;1.52;1.20;;;18.10;53.60;;;;;;5086456;28;45138;-74
2022/10/09 02:44:38;;;;;;;1.55;1.20;;;18.20;53.70;;;;;;5090428;28;45207;-74
2022/10/09 02:47:05;;;;;;;1.80;1.23;;;18.20;53.70;;;;;;5090264;28;46686;-74
2022/10/09 02:49:32;;;;;;;1.27;1.13;;;18.10;53.70;;;;;;5090432;28;45524;-74
2022/10/09 02:51:58;;;;;;;1.23;1.10;;;18.20;53.70;;;;;;5090400;28;45433;-74
2022/10/09 02:54:27;;;;;;;1.58;1.30;;;18.10;53.60;;;;;;5090484;28;45284;-74
2022/10/09 02:56:54;;;;;;;2.83;1.27;;;18.10;53.60;;;;;;5090121;28;46399;-74
2022/10/09 02:59:20;;;;;;;1.20;1.10;;;18.10;53.60;;;;;;5090033;28;45189;-74
2022/10/09 03:01:47;;;;;;;1.30;1.20;;;18.10;53.70;;;;;;5090232;28;45302;-74
2022/10/09 03:04:14;;;;;;;1.20;1.10;;;18.10;53.70;;;;;;5090381;28;45484;-74
2022/10/09 03:06:41;;;;;;;0.93;0.93;;;18.10;53.60;;;;;;5089766;28;45396;-74
2022/10/09 03:09:08;;;;;;;1.13;0.90;;;18.10;53.60;;;;;;5090157;28;45250;-73
2022/10/09 03:11:36;;;;;;;1.13;0.98;;;18.10;53.70;;;;;;5089433;28;45276;-74
2022/10/09 03:14:03;;;;;;;1.48;1.13;;;18.00;53.60;;;;;;5090223;28;45296;-74
2022/10/09 03:16:30;;;;;;;1.15;1.05;;;18.00;53.60;;;;;;5089883;28;46722;-74
2022/10/09 03:18:57;;;;;;;1.30;1.10;;;18.00;53.60;;;;;;5089854;28;45400;-74
2022/10/09 03:21:24;;;;;;;1.27;1.17;;;18.00;53.70;;;;;;5090005;28;45308;-74
2022/10/09 03:23:52;;;;;;;1.23;1.00;;;18.00;53.60;;;;;;5090161;28;45180;-74
2022/10/09 03:26:20;;;;;;;1.30;0.98;;;18.00;53.60;;;;;;5089563;28;45327;-73
2022/10/09 03:28:49;;;;;;;1.65;1.30;;;18.00;53.70;;;;;;5089732;28;45429;-74
2022/10/09 03:31:16;;;;;;;1.67;1.08;;;18.00;53.70;;;;;;5089757;28;45197;-73
2022/10/09 03:33:43;;;;;;;1.10;1.10;;;17.90;53.70;;;;;;5089916;28;45234;-74
2022/10/09 03:36:10;;;;;;;1.90;1.20;;;18.00;53.70;;;;;;5089521;28;45434;-73
2022/10/09 03:38:37;;;;;;;1.55;1.10;;;18.00;53.60;;;;;;5086931;28;45359;-72
2022/10/09 03:41:04;;;;;;;1.50;1.20;;;17.90;53.60;;;;;;5089802;28;45205;-74
2022/10/09 03:43:31;;;;;;;0.90;0.90;;;17.90;53.70;;;;;;5089506;28;45265;-74
2022/10/09 03:45:59;;;;;;;1.45;1.08;;;17.90;53.70;;;;;;5089246;28;45364;-73
2022/10/09 03:48:26;;;;;;;1.23;1.13;;;17.90;53.70;;;;;;5089472;28;45340;-73
2022/10/09 03:50:53;;;;;;;1.45;1.35;;;17.90;53.70;;;;;;5089449;28;45258;-74
2022/10/09 03:53:19;;;;;;;1.10;1.00;;;17.90;53.70;;;;;;5089119;27;45571;-73
2022/10/09 03:55:46;;;;;;;2.45;1.17;;;17.90;53.70;;;;;;5088432;28;45459;-73
2022/10/09 03:58:13;;;;;;;1.30;1.20;;;17.80;53.60;;;;;;5088885;28;45289;-74
2022/10/09 04:00:40;;;;;;;0.98;0.90;;;17.80;53.60;;;;;;5089343;28;45418;-73
2022/10/09 04:03:08;;;;;;;1.20;1.10;;;17.80;53.60;;;;;;5089524;28;45456;-73
2022/10/09 04:05:35;;;;;;;1.20;1.00;;;17.80;53.60;;;;;;5089146;28;45265;-73
2022/10/09 04:08:02;;;;;;;0.95;0.95;;;17.80;53.60;;;;;;5089106;28;45193;-73
2022/10/09 04:10:28;;;;;;;1.50;1.10;;;17.80;53.60;;;;;;5089215;28;45442;-74
2022/10/09 04:12:55;;;;;;;1.13;1.02;;;17.80;53.60;;;;;;5089283;28;45348;-74
2022/10/09 04:15:22;;;;;;;1.48;1.17;;;17.70;53.60;;;;;;5089067;28;46471;-73
2022/10/09 04:17:49;;;;;;;1.17;1.13;;;17.80;53.60;;;;;;5089024;28;45301;-73
2022/10/09 04:20:19;;;;;;;1.50;1.02;;;17.70;53.60;;;;;;5089188;28;45196;-74
2022/10/09 04:22:46;;;;;;;1.20;1.10;;;17.70;53.60;;;;;;5089238;28;45372;-73
2022/10/09 04:25:13;;;;;;;1.42;1.30;;;17.70;53.60;;;;;;5088740;28;45305;-73
2022/10/09 04:27:40;;;;;;;1.10;1.00;;;17.70;53.60;;;;;;5089194;28;45192;-73
2022/10/09 04:30:08;;;;;;;1.02;1.02;;;17.70;54.20;;;;;;5088876;28;45214;-73
2022/10/09 04:32:35;;;;;;;1.70;1.00;;;17.70;53.60;;;;;;5089138;28;45319;-73
2022/10/09 04:35:02;;;;;;;1.20;1.02;;;17.70;53.60;;;;;;5088677;28;46741;-73
2022/10/09 04:37:30;;;;;;;0.85;0.85;;;17.70;53.60;;;;;;5088689;28;45209;-73
2022/10/09 04:39:57;;;;;;;1.20;1.10;;;17.60;53.60;;;;;;5088374;28;45203;-71
2022/10/09 04:42:23;;;;;;;1.95;1.10;;;17.60;53.60;;;;;;5088083;28;45437;-73
2022/10/09 04:44:50;;;;;;;1.25;1.15;;;17.60;53.60;;;;;;5088549;28;46392;-73
2022/10/09 04:47:17;;;;;;;1.33;1.10;;;17.60;53.60;;;;;;5088509;28;45336;-73
2022/10/09 04:49:44;;;;;;;1.38;1.20;;;17.60;53.60;;;;;;5088565;28;45253;-73
2022/10/09 04:52:11;;;;;;;1.45;1.30;;;17.60;53.60;;;;;;5088656;28;45286;-73
2022/10/09 04:54:39;;;;;;;1.17;1.05;;;17.60;53.60;;;;;;5088474;28;45721;-73
2022/10/09 04:57:06;;;;;;;1.00;1.00;;;17.50;53.50;;;;;;5088275;28;45307;-74
2022/10/09 04:59:32;;;;;;;1.27;1.05;;;17.50;53.60;;;;;;5088321;28;45241;-73
2022/10/09 05:01:59;;;;;;;1.33;1.23;;;17.50;53.60;;;;;;5088571;28;45201;-73
2022/10/09 05:04:26;;;;;;;1.30;1.20;;;17.50;53.60;;;;;;5088444;28;45366;-73
2022/10/09 05:06:53;;;;;;;1.17;1.02;;;17.50;53.60;;;;;;5087098;27;45294;-73
2022/10/09 05:09:20;;;;;;;1.08;0.98;;;17.50;53.60;;;;;;5088266;28;45302;-73
2022/10/09 05:11:48;;;;;;;1.20;1.10;;;17.50;53.70;;;;;;5088469;28;45241;-73
2022/10/09 05:14:15;;;;;;;1.77;1.13;;;17.50;53.70;;;;;;5087948;28;45177;-73
2022/10/09 05:16:42;;;;;;;1.60;1.10;;;17.50;53.70;;;;;;5088067;28;45203;-73
2022/10/09 05:19:08;;;;;;;1.25;1.17;;;17.40;53.70;;;;;;5088113;28;45299;-73
2022/10/09 05:21:36;;;;;;;0.95;0.95;;;17.40;53.70;;;;;;5088353;28;45404;-73
2022/10/09 05:24:03;;;;;;;1.23;1.13;;;17.40;53.80;;;;;;5087137;28;45254;-74
2022/10/09 05:26:30;;;;;;;1.08;0.98;;;17.40;53.80;;;;;;5087789;28;45315;-73
2022/10/09 05:28:58;;;;;;;1.58;1.40;;;17.40;53.80;;;;;;5088220;28;45269;-73
2022/10/09 05:31:25;;;;;;;1.08;1.08;;;17.40;53.80;;;;;;5088192;28;45321;-74
2022/10/09 05:33:52;;;;;;;2.20;1.10;;;17.40;53.90;;;;;;5087917;28;46497;-73
2022/10/09 05:36:19;;;;;;;1.30;1.20;;;17.40;53.90;;;;;;5087874;28;45247;-73
2022/10/09 05:38:46;;;;;;;1.67;1.20;;;17.40;53.90;;;;;;5087782;28;45139;-73
2022/10/09 05:41:13;;;;;;;1.27;1.17;;;17.40;53.90;;;;;;5087903;28;45286;-73
2022/10/09 05:43:41;;;;;;;1.45;1.30;;;17.40;53.90;;;;;;5087289;28;46646;-73
2022/10/09 05:46:10;;;;;;;1.00;1.00;;;17.30;54.00;;;;;;5087528;28;45287;-73
2022/10/09 05:48:37;;;;;;;1.20;1.10;;;17.30;54.00;;;;;;5087934;28;45200;-73
2022/10/09 05:51:08;;;;;;;0.90;0.90;;;17.30;54.00;;;;;;5087867;28;45460;-73
2022/10/09 05:53:35;;;;;;;1.45;1.35;;;17.30;54.00;;;;;;5087657;28;46373;-73
2022/10/09 05:56:11;;;;;;;1.20;1.10;;;17.30;54.00;;;;;;5087371;28;45433;-73
2022/10/09 05:58:38;;;;;;;1.33;1.15;;;17.30;54.10;;;;;;5087577;28;45322;-73
2022/10/09 06:01:05;;;;;;;1.38;1.27;;;17.30;54.10;;;;;;5087777;28;45273;-73
2022/10/09 06:03:33;;;;;;;1.23;1.13;;;17.30;54.10;;;;;;5087253;28;46402;-73
2022/10/09 06:06:00;;;;;;;1.33;1.20;;;17.30;54.10;;;;;;5087213;28;45305;-74
2022/10/09 06:08:27;;;;;;;1.00;1.00;;;17.20;54.10;;;;;;5087398;28;45142;-74
2022/10/09 06:10:54;;;;;;;0.98;0.98;;;17.30;54.20;;;;;;5087511;28;45370;-73
2022/10/09 06:13:21;;;;;;;1.40;1.10;;;17.30;54.20;;;;;;5086475;28;46520;-74
2022/10/09 06:15:54;;;;;;;1.20;1.10;;;17.30;54.10;;;;;;5087313;28;45293;-73
2022/10/09 06:18:21;;;;;;;1.02;0.93;;;17.20;54.10;;;;;;5087303;28;45298;-74
2022/10/09 06:20:55;;;;;;;1.10;1.10;;;17.20;54.10;;;;;;5087472;28;45324;-73
2022/10/09 06:23:22;;;;;;;1.20;1.10;;;17.20;54.10;;;;;;5087257;28;46387;-74
2022/10/09 06:25:53;;;;;;;1.10;1.10;;;17.20;54.10;;;;;;5087559;28;45194;-73
2022/10/09 06:28:19;;;;;;;0.82;0.82;;;17.20;54.30;;;;;;5087362;28;45302;-73
2022/10/09 06:30:46;;;;;;;1.00;1.00;;;17.20;54.30;;;;;;5087371;28;45403;-73
2022/10/09 06:33:13;;;;;;;1.00;1.00;;;17.20;54.20;;;;;;5087503;28;46529;-73
2022/10/09 06:35:40;;;;;;;1.00;1.00;;;17.20;54.30;;;;;;5087798;28;45182;-73
2022/10/09 06:38:08;;;;;;;1.00;1.00;;;17.20;54.30;;;;;;5088010;28;45239;-73
2022/10/09 06:40:36;;;;;;;0.90;0.90;;;17.20;54.20;;;;;;5088353;28;45368;-73
2022/10/09 06:43:03;;;;;;;1.10;1.00;;;17.20;54.20;;;;;;5087529;28;45260;-74
2022/10/09 06:45:30;;;;;;;1.10;1.10;;;17.20;54.90;;;;;;5087730;28;45228;-74
2022/10/09 06:47:57;;;;;;;1.00;1.00;;;17.20;54.30;;;;;;5087645;28;45225;-73
2022/10/09 06:50:23;;;;;;;0.80;0.80;;;17.10;54.30;;;;;;5087575;28;45408;-74
2022/10/09 06:52:50;;;;;;;1.00;1.00;;;17.10;54.30;;;;;;5087304;28;45503;-73
2022/10/09 06:55:19;;;;;;;1.27;1.00;;;17.10;54.30;;;;;;5087377;28;45311;-74
2022/10/09 06:57:45;;;;;;;1.05;1.05;;;17.10;54.30;;;;;;5087658;28;45211;-73
2022/10/09 07:00:14;;;;;;;1.30;1.20;;;17.10;54.30;;;;;;5087398;28;45194;-74
2022/10/09 07:02:41;;;;;;;1.20;1.02;;;17.20;54.30;;;;;;5085792;28;45290;-73
2022/10/09 07:05:08;;;;;;;1.13;1.05;;;17.20;54.30;;;;;;5086693;28;45302;-73
2022/10/09 07:07:39;;;;;;;1.00;1.00;;;17.20;54.30;;;;;;5086922;28;45201;-73
2022/10/09 07:10:07;;;;;;;1.48;1.10;;;17.10;54.20;;;;;;5086868;28;45328;-74
2022/10/09 07:12:35;;;;;;;1.00;1.00;;;17.10;54.30;;;;;;5086512;28;45388;-73
2022/10/09 07:15:02;;;;;;;1.00;1.00;;;17.10;54.30;;;;;;5086576;28;45285;-73
2022/10/09 07:17:29;;;;;;;1.10;1.10;;;17.10;54.30;;;;;;5086627;28;45360;-74
2022/10/09 07:19:56;;;;;;;1.20;1.10;;;17.10;54.30;;;;;;5086739;28;45581;-73
2022/10/09 07:22:23;;;;;;;1.10;0.98;;;17.10;54.30;;;;;;5083938;28;46157;-73
2022/10/09 07:24:50;;;;;;;1.00;1.00;;;17.10;54.40;;;;;;5086397;28;45182;-73
2022/10/09 07:27:17;;;;;;;0.80;0.80;;;17.10;54.40;;;;;;5086546;28;45250;-73
2022/10/09 07:29:45;;;;;;;1.58;1.10;;;17.10;54.40;;;;;;5088622;27;45434;-74
2022/10/09 07:32:12;;;;;;;0.93;0.93;;;17.10;55.00;;;;;;5089644;28;45296;-73
2022/10/09 07:34:39;;;;;;;0.95;0.95;;;17.10;54.40;;;;;;5089818;28;45258;-73
2022/10/09 07:37:05;;;;;;;0.80;0.80;;;17.10;54.50;;;;;;5089867;28;45383;-74
2022/10/09 07:39:33;;;;;;;0.95;0.95;;;17.10;54.50;;;;;;5090078;28;45447;-74
2022/10/09 07:42:00;;;;;;;0.90;0.90;;;17.10;54.40;;;;;;5089196;28;46701;-74
2022/10/09 07:44:27;;;;;;;0.90;0.90;;;17.10;54.50;;;;;;5089486;28;45445;-73
2022/10/09 07:46:55;;;;;;;1.25;0.98;;;17.10;54.50;;;;;;5089217;28;45391;-71
2022/10/09 07:49:22;;;;;;;1.15;1.13;;;17.10;54.50;;;;;;5089118;28;45211;-73
2022/10/09 07:51:49;;;;;;;0.90;0.90;;;17.10;54.50;;;;;;5089557;28;46429;-73
2022/10/09 07:54:16;;;;;;;1.20;0.90;;;17.10;54.50;;;;;;5089488;28;45384;-73
2022/10/09 07:56:43;;;;;;;0.80;0.80;;;17.10;54.50;;;;;;5089519;28;45304;-73
2022/10/09 07:59:12;;;;;;;0.98;0.98;;;17.10;54.50;;;;;;5089467;28;45198;-74
2022/10/09 08:01:39;;;;;;;1.00;1.00;;;17.10;54.50;;;;;;5088872;28;46391;-73
2022/10/09 08:04:07;;;;;;;1.08;1.08;;;17.10;54.50;;;;;;5089120;28;45289;-73
2022/10/09 08:06:34;;;;;;;1.08;1.08;;;17.10;54.50;;;;;;5089198;28;45384;-74
2022/10/09 08:09:01;;;;;;;1.17;1.08;;;17.10;54.50;;;;;;5089295;28;45161;-74
2022/10/09 08:11:28;;;;;;;1.20;1.10;;;17.10;54.50;;;;;;5088871;28;45407;-73
2022/10/09 08:13:55;;;;;;;0.93;0.93;;;17.10;54.50;;;;;;5088957;28;45296;-74
2022/10/09 08:16:24;;;;;;;1.23;1.13;;;17.10;54.50;;;;;;5089043;28;45429;-73
2022/10/09 08:18:54;;;;;;;1.05;0.95;;;17.10;54.50;;;;;;5089344;28;45448;-74
2022/10/09 08:21:23;;;;;;;0.90;0.90;;;17.10;54.50;;;;;;5088730;28;45597;-73
2022/10/09 08:23:52;;;;;;;0.93;0.93;;;17.10;54.50;;;;;;5088932;28;45317;-74
2022/10/09 08:26:20;;;;;;;0.95;0.95;;;17.10;54.50;;;;;;5088971;28;45239;-74
2022/10/09 08:28:50;;;;;;;1.00;1.00;;;17.10;54.50;;;;;;5088940;28;45399;-74
2022/10/09 08:31:17;;;;;;;1.10;1.00;;;17.10;54.60;;;;;;5088593;28;46588;-73
2022/10/09 08:33:44;;;;;;;1.20;1.10;;;17.10;54.60;;;;;;5088542;28;45193;-73
2022/10/09 08:36:13;;;;;;;1.00;1.00;;;17.10;54.50;;;;;;5087921;28;45310;-73
2022/10/09 08:38:41;;;;;;;0.80;0.80;;;17.10;54.60;;;;;;5088620;28;45257;-73
2022/10/09 08:41:09;;;;;;;1.30;1.20;;;17.10;54.70;;;;;;5086301;27;46683;-73
2022/10/09 08:43:40;;;;;;;1.00;1.00;;;17.10;55.20;;;;;;5087945;28;45437;-74
2022/10/09 08:46:17;;;;;;;0.93;0.93;;;17.10;54.60;;;;;;5088561;28;45235;-73
2022/10/09 08:48:44;;;;;;;1.20;1.10;;;17.10;54.70;;;;;;5088488;28;45210;-73
2022/10/09 08:51:15;;;;;;;1.10;1.02;;;17.10;54.70;;;;;;5087994;28;45232;-73
2022/10/09 08:53:45;;;;;;;1.10;0.90;;;17.10;54.80;;;;;;5088288;28;45152;-73
2022/10/09 08:56:14;;;;;;;1.20;1.10;;;17.10;54.80;;;;;;5088361;28;45375;-73
2022/10/09 08:58:41;;;;;;;1.73;1.10;;;17.10;54.80;;;;;;5088568;28;45431;-73
2022/10/09 09:01:15;;;;;;;1.15;1.00;;;17.10;54.70;;;;;;5087980;28;46453;-73
2022/10/09 09:04:00;;;;;;;0.90;0.90;;;17.10;54.80;;;;;;5088152;28;45255;-73
2022/10/09 09:06:30;;;;;;;0.90;0.90;;;17.10;54.80;;;;;;5089420;28;45193;-73
2022/10/09 09:09:00;;;;;;;1.10;1.10;;;17.10;54.80;;;;;;5088960;28;45404;-74
2022/10/09 09:11:32;;;;;;;1.05;0.95;;;17.10;54.80;;;;;;5088578;28;46440;-73
2022/10/09 09:14:06;;;;;;;1.10;1.10;;;17.20;54.80;;;;;;5088620;28;45388;-74
2022/10/09 09:16:39;;;;;;;0.90;0.90;;;17.20;54.80;;;;;;5089011;28;45380;-73
2022/10/09 09:19:24;;;;;;;0.90;0.90;;;17.20;54.80;;;;;;5089182;28;45284;-74
2022/10/09 09:21:51;;;;;;;0.90;0.90;;;17.20;54.80;;;;;;5088331;28;46495;-74
2022/10/09 09:24:20;;;;;;;1.17;1.10;;;17.20;54.80;;;;;;5088574;28;45337;-74
2022/10/09 09:26:48;;;;;;;1.08;1.08;;;17.20;54.90;;;;;;5088533;28;45215;-73
2022/10/09 09:29:16;;;;;;;1.63;1.25;;;17.20;54.90;;;;;;5088677;28;45582;-73
2022/10/09 09:31:42;;;;;;;1.00;1.00;;;17.10;54.90;;;;;;5088309;28;45334;-74
2022/10/09 09:34:10;;;;;;;1.13;1.05;;;17.20;54.90;;;;;;5088141;28;45367;-73
2022/10/09 09:36:39;;;;;;;1.23;1.13;;;17.20;54.90;;;;;;5088607;28;45188;-74
2022/10/09 09:39:06;;;;;;;1.30;1.13;;;17.20;55.50;;;;;;5088507;28;45522;-73
2022/10/09 09:41:34;;;;;;;1.17;1.17;;;17.20;54.90;;;;;;5087764;28;46376;-73
2022/10/09 09:44:01;;;;;;;1.10;1.10;;;17.20;54.90;;;;;;5094815;27;45428;-74
2022/10/09 09:46:30;;;;;;;1.27;1.17;;;17.10;54.90;;;;;;5089199;27;45123;-73
2022/10/09 09:48:56;;;;;;;1.08;1.05;;;17.20;54.90;;;;;;5087593;28;45333;-74
2022/10/09 09:51:26;;;;;;;1.00;1.00;;;17.20;55.50;;;;;;5083879;27;45599;-74
2022/10/09 09:53:53;;;;;;;1.00;1.00;;;17.20;55.00;;;;;;5087577;28;45131;-74
2022/10/09 09:56:20;;;;;;;1.30;1.20;;;17.20;55.00;;;;;;5081591;28;45270;-74
2022/10/09 09:58:50;;;;;;;1.33;1.25;;;17.20;55.00;;;;;;5088254;28;45274;-74
2022/10/09 10:01:21;;;;;;;1.40;1.30;;;17.20;55.00;;;;;;5087986;28;46700;-74
2022/10/09 10:03:49;;;;;;;1.55;1.45;;;17.20;55.10;;;;;;5087420;28;45232;-74
2022/10/09 10:06:23;;;;;;;1.17;1.08;;;17.20;55.10;;;;;;5082857;28;45320;-74
2022/10/09 10:09:01;;;;;;;1.20;1.10;;;17.20;55.10;;;;;;5087409;28;45501;-73
2022/10/09 10:11:28;;;;;;;1.50;1.40;;;17.20;55.10;;;;;;5078531;28;45391;-74
2022/10/09 10:13:56;;;;;;;1.23;1.10;;;17.20;55.10;;;;;;5079546;27;45167;-74
2022/10/09 10:16:24;;;;;;;1.10;1.10;;;17.20;55.20;;;;;;5090124;27;45400;-74
2022/10/09 10:18:51;;;;;;;1.67;1.17;;;17.20;55.20;;;;;;5080465;27;45461;-72
2022/10/09 10:21:19;;;;;;;1.50;1.35;;;17.20;55.70;;;;;;5089593;27;46673;-74
2022/10/09 10:23:46;;;;;;;1.48;1.35;;;17.30;55.10;;;;;;5088447;27;45352;-74
2022/10/09 10:26:19;;;;;;;1.55;1.45;;;17.30;54.90;;;;;;5083986;28;45376;-74
2022/10/09 10:28:48;;;;;;;1.15;1.05;;;17.40;54.90;;;;;;5071096;27;45535;-74
2022/10/09 10:31:29;;;;;;;1.63;1.52;;;17.40;54.80;;;;;;5087325;28;46385;-74
2022/10/09 10:33:56;;;;;;;2.75;1.30;;;17.50;54.70;;;;;;5087344;28;45287;-74
2022/10/09 10:36:23;;;;;;;1.50;1.40;;;17.50;54.60;;;;;;5083975;27;45533;-74
2022/10/09 10:38:52;;;;;;;1.65;1.20;;;17.50;55.10;;;;;;5085745;28;45268;-74
2022/10/09 10:41:21;;;;;;;1.30;1.20;;;17.50;54.50;;;;;;5079584;28;45396;-74
2022/10/09 10:43:49;;;;;;;2.33;1.30;;;17.60;54.50;;;;;;5068358;28;45478;-74
2022/10/09 10:46:22;;;;;;;1.42;1.30;;;17.60;54.50;;;;;;5083677;28;45335;-74
2022/10/09 10:48:49;;;;;;;1.40;1.30;;;17.60;54.40;;;;;;5087107;28;45296;-73
2022/10/09 10:51:31;;;;;;;1.48;1.38;;;17.70;54.30;;;;;;5090513;27;45511;-74
2022/10/09 10:54:04;;;;;;;1.55;1.45;;;17.70;54.30;;;;;;5093495;27;45444;-73
2022/10/09 10:56:32;;;;;;;1.70;1.60;;;17.70;54.10;;;;;;5082995;27;45404;-73
2022/10/09 10:59:05;;;;;;;1.40;1.30;;;17.80;54.10;;;;;;5085672;28;45379;-73
2022/10/09 11:01:37;;;;;;;1.27;1.23;;;17.80;54.70;;;;;;5079704;27;45571;-74
2022/10/09 11:04:20;;;;;;;1.45;1.35;;;17.80;54.10;;;;;;5078967;27;45292;-73
2022/10/09 11:06:50;;;;;;;1.50;1.40;;;17.90;54.00;;;;;;5083970;28;45332;-74
2022/10/09 11:09:19;;;;;;;1.40;1.33;;;17.90;54.00;;;;;;5089878;28;45188;-74
2022/10/09 11:11:48;;;;;;;1.23;1.20;;;18.00;53.90;;;;;;5084259;28;46640;-73
2022/10/09 11:14:21;;;;;;;1.50;1.40;;;18.00;53.80;;;;;;5092006;27;45331;-74
2022/10/09 11:16:56;;;;;;;1.42;1.33;;;18.00;53.70;;;;;;5089695;27;45221;-74
2022/10/09 11:19:32;;;;;;;1.63;1.27;;;18.00;53.70;;;;;;5089166;27;45564;-74
2022/10/09 11:22:01;;;;;;;2.05;1.20;;;18.10;53.70;;;;;;5092447;27;46315;-74
2022/10/09 11:24:36;;;;;;;1.20;1.10;;;18.10;53.60;;;;;;5088946;28;45254;-74
2022/10/09 11:27:09;;;;;;;1.38;1.27;;;18.10;53.60;;;;;;5074698;28;45186;-74
2022/10/09 11:29:37;;;;;;;2.17;1.38;;;18.20;53.60;;;;;;5090041;28;45477;-74
2022/10/09 11:32:09;;;;;;;1.98;1.48;;;18.20;53.50;;;;;;5082274;27;46177;-74
2022/10/09 11:34:39;;;;;;;1.88;1.20;;;18.30;53.50;;;;;;5089502;28;45319;-73
2022/10/09 11:37:08;;;;;;;2.47;1.60;;;18.30;53.50;;;;;;5093089;27;45533;-73
2022/10/09 11:39:34;;;;;;;2.22;1.42;;;18.40;53.40;;;;;;5078928;28;45408;-73
2022/10/09 11:42:01;;;;;;;1.45;1.20;;;18.40;53.20;;;;;;5075314;28;45361;-74
2022/10/09 11:44:35;;;;;;;2.53;1.67;;;18.50;53.20;;;;;;5070542;28;45337;-74
2022/10/09 11:47:08;;;;;;;1.52;1.42;;;18.50;53.10;;;;;;5089441;28;45370;-74
2022/10/09 11:49:40;;;;;;;1.48;1.38;;;18.60;53.00;;;;;;5098819;27;45348;-74
2022/10/09 11:52:11;;;;;;;2.00;1.30;;;18.60;52.90;;;;;;5075118;27;45317;-74
2022/10/09 11:54:39;;;;;;;1.55;1.35;;;18.70;52.90;;;;;;5081154;28;45407;-73
2022/10/09 11:57:06;;;;;;;2.40;1.30;;;18.70;52.70;;;;;;5083305;28;45326;-73
2022/10/09 11:59:35;;;;;;;1.38;1.27;;;18.80;52.70;;;;;;5078206;28;45237;-74
2022/10/09 12:02:24;;;;;;;1.52;1.30;;;18.80;52.60;;;;;;5079894;27;46587;-73
2022/10/09 12:04:51;;;;;;;1.45;1.33;;;18.90;52.60;;;;;;5073856;28;45339;-75
2022/10/09 12:07:26;;;;;;;1.48;1.33;;;18.90;52.50;;;;;;5080904;28;45570;-74
2022/10/09 12:09:57;;;;;;;2.30;1.70;;;18.90;52.40;;;;;;5081148;28;45116;-74
2022/10/09 12:12:24;;;;;;;2.85;1.83;;;19.00;52.40;;;;;;5088931;28;45359;-74
2022/10/09 12:14:51;;;;;;;1.70;1.52;;;19.00;52.30;;;;;;5086108;27;45356;-74
2022/10/09 12:17:33;;;;;;;1.83;1.73;;;19.10;52.20;;;;;;5088797;28;45206;-74
2022/10/09 12:20:04;;;;;;;1.88;1.65;;;19.10;52.10;;;;;;5085820;27;45506;-74
2022/10/09 12:22:33;;;;;;;1.90;1.65;;;19.20;52.00;;;;;;5087981;27;45490;-74
2022/10/09 12:25:04;;;;;;;3.65;1.67;;;19.20;52.00;;;;;;5084440;27;45420;-74
2022/10/09 12:27:34;;;;;;;1.52;1.42;;;19.30;52.50;;;;;;5088269;27;45365;-74
2022/10/09 12:30:06;;;;;;;3.38;1.45;;;19.30;51.70;;;;;;5105406;27;45340;-74
2022/10/09 12:32:36;;;;;;;2.13;1.67;;;19.30;51.70;;;;;;5088685;27;46393;-74
2022/10/09 12:35:11;;;;;;;1.30;1.30;;;19.40;51.70;;;;;;5073042;28;45241;-74
2022/10/09 12:37:38;;;;;;;2.05;1.60;;;19.40;51.60;;;;;;5078414;28;45374;-74
2022/10/09 12:40:08;;;;;;;1.70;1.60;;;19.50;52.20;;;;;;5074713;28;45335;-74
2022/10/09 12:42:35;;;;;;;1.63;1.50;;;19.50;51.60;;;;;;5086027;28;45425;-73
2022/10/09 12:45:02;;;;;;;2.05;1.45;;;19.50;52.10;;;;;;5088257;28;45322;-74
2022/10/09 12:47:29;;;;;;;1.48;1.38;;;19.50;51.40;;;;;;5088270;27;45182;-73
2022/10/09 12:50:03;;;;;;;2.88;1.42;;;19.60;51.40;;;;;;5083376;27;46217;-73
2022/10/09 12:52:31;;;;;;;2.17;1.58;;;19.60;51.40;;;;;;5087429;28;46465;-74
2022/10/09 12:54:57;;;;;;;1.48;1.38;;;19.60;51.30;;;;;;5088316;28;45205;-73